<?xml version="1.0" encoding="UTF-8" standalone="no" ?>
<gpx xmlns="http://www.topografix.com/GPX/1/1" xmlns:xsi="http://www.w3.org/2001/XMLSchema-instance" xsi:schemaLocation="http://www.topografix.com/GPX/1/1 http://www.topografix.com/GPX/1/1/gpx.xsd" version="1.1" creator="VisuGPX - https://www.visugpx.com">
  <metadata>
    <name>Chemin sevigny</name>
  </metadata>
  <trk>
    <name><![CDATA[Tracé 8 oct. 2019 13:59:59]]></name>
    <trkseg>
      <trkpt lat="48.74725" lon="-0.02468">
        <ele>26.001286666667</ele>
        <time>2019-10-08T11:59:59Z</time>
      </trkpt>
      <trkpt lat="48.74725" lon="-0.02468">
        <ele>26.001286666667</ele>
        <time>2019-10-08T12:00:00Z</time>
      </trkpt>
      <trkpt lat="48.74725" lon="-0.02468">
        <ele>26.001286666667</ele>
        <time>2019-10-08T12:00:05Z</time>
      </trkpt>
      <trkpt lat="48.7467" lon="-0.02486">
        <ele>165.9005808</ele>
        <time>2019-10-08T12:03:15Z</time>
      </trkpt>
      <trkpt lat="48.7467" lon="-0.02486">
        <ele>165.9005808</ele>
        <time>2019-10-08T12:03:17Z</time>
      </trkpt>
      <trkpt lat="48.74735" lon="-0.02442">
        <ele>165.90232</ele>
        <time>2019-10-08T12:04:14Z</time>
      </trkpt>
      <trkpt lat="48.74735" lon="-0.02442">
        <ele>44.00232</ele>
        <time>2019-10-08T12:04:43Z</time>
      </trkpt>
      <trkpt lat="48.74772" lon="-0.0241">
        <ele>57.4036</ele>
        <time>2019-10-08T12:05:04Z</time>
      </trkpt>
      <trkpt lat="48.74775" lon="-0.02419">
        <ele>73.10324</ele>
        <time>2019-10-08T12:05:25Z</time>
      </trkpt>
      <trkpt lat="48.74788" lon="-0.02401">
        <ele>75.803953333333</ele>
        <time>2019-10-08T12:05:45Z</time>
      </trkpt>
      <trkpt lat="48.74812" lon="-0.02375">
        <ele>79.90502</ele>
        <time>2019-10-08T12:06:06Z</time>
      </trkpt>
      <trkpt lat="48.74822" lon="-0.02367">
        <ele>76.005326666667</ele>
        <time>2019-10-08T12:06:26Z</time>
      </trkpt>
      <trkpt lat="48.74824" lon="-0.02304">
        <ele>79.807833333333</ele>
        <time>2019-10-08T12:06:47Z</time>
      </trkpt>
      <trkpt lat="48.74842" lon="-0.02276">
        <ele>84.608953333333</ele>
        <time>2019-10-08T12:07:08Z</time>
      </trkpt>
      <trkpt lat="48.74852" lon="-0.02243">
        <ele>86.4103</ele>
        <time>2019-10-08T12:07:29Z</time>
      </trkpt>
      <trkpt lat="48.74877" lon="-0.02217">
        <ele>84.611333333333</ele>
        <time>2019-10-08T12:07:50Z</time>
      </trkpt>
      <trkpt lat="48.7489" lon="-0.0219">
        <ele>87.712393333333</ele>
        <time>2019-10-08T12:08:10Z</time>
      </trkpt>
      <trkpt lat="48.74901" lon="-0.02174">
        <ele>85.81306</ele>
        <time>2019-10-08T12:08:31Z</time>
      </trkpt>
      <trkpt lat="48.74907" lon="-0.02138">
        <ele>88.914493333333</ele>
        <time>2019-10-08T12:08:51Z</time>
      </trkpt>
      <trkpt lat="48.74926" lon="-0.0212">
        <ele>98.615213333333</ele>
        <time>2019-10-08T12:09:12Z</time>
      </trkpt>
      <trkpt lat="48.74949" lon="-0.02133">
        <ele>100.81468</ele>
        <time>2019-10-08T12:09:32Z</time>
      </trkpt>
      <trkpt lat="48.74968" lon="-0.02132">
        <ele>102.41470666667</ele>
        <time>2019-10-08T12:09:53Z</time>
      </trkpt>
      <trkpt lat="48.74985" lon="-0.02115">
        <ele>99.415393333333</ele>
        <time>2019-10-08T12:10:13Z</time>
      </trkpt>
      <trkpt lat="48.74987" lon="-0.02085">
        <ele>95.816613333333</ele>
        <time>2019-10-08T12:10:33Z</time>
      </trkpt>
      <trkpt lat="48.74988" lon="-0.02045">
        <ele>93.518193333333</ele>
        <time>2019-10-08T12:10:53Z</time>
      </trkpt>
      <trkpt lat="48.74992" lon="-0.02005">
        <ele>96.219813333333</ele>
        <time>2019-10-08T12:11:14Z</time>
      </trkpt>
      <trkpt lat="48.74991" lon="-0.01961">
        <ele>99.42156</ele>
        <time>2019-10-08T12:11:35Z</time>
      </trkpt>
      <trkpt lat="48.75001" lon="-0.01932">
        <ele>100.82274360547</ele>
        <time>2019-10-08T12:11:56Z</time>
      </trkpt>
      <trkpt lat="48.7502" lon="-0.0192">
        <ele>105.22326144</ele>
        <time>2019-10-08T12:12:16Z</time>
      </trkpt>
      <trkpt lat="48.75041" lon="-0.01916">
        <ele>105.2235046352</ele>
        <time>2019-10-08T12:12:37Z</time>
      </trkpt>
      <trkpt lat="48.7506" lon="-0.01905">
        <ele>107.52398953067</ele>
        <time>2019-10-08T12:12:57Z</time>
      </trkpt>
      <trkpt lat="48.7508" lon="-0.01891">
        <ele>104.02458926169</ele>
        <time>2019-10-08T12:13:18Z</time>
      </trkpt>
      <trkpt lat="48.75091" lon="-0.01865">
        <ele>105.6256924656</ele>
        <time>2019-10-08T12:13:38Z</time>
      </trkpt>
      <trkpt lat="48.751" lon="-0.01816">
        <ele>102.02765104427</ele>
        <time>2019-10-08T12:13:59Z</time>
      </trkpt>
      <trkpt lat="48.75109" lon="-0.01778">
        <ele>106.32917728222</ele>
        <time>2019-10-08T12:14:19Z</time>
      </trkpt>
      <trkpt lat="48.75117" lon="-0.01741">
        <ele>108.13068637947</ele>
        <time>2019-10-08T12:14:40Z</time>
      </trkpt>
      <trkpt lat="48.75107" lon="-0.01708">
        <ele>110.03195776667</ele>
        <time>2019-10-08T12:15:01Z</time>
      </trkpt>
      <trkpt lat="48.75096" lon="-0.01672">
        <ele>111.43336928631</ele>
        <time>2019-10-08T12:15:22Z</time>
      </trkpt>
      <trkpt lat="48.75085" lon="-0.01647">
        <ele>111.134350636</ele>
        <time>2019-10-08T12:15:42Z</time>
      </trkpt>
      <trkpt lat="48.75081" lon="-0.01635">
        <ele>108.83483139533</ele>
        <time>2019-10-08T12:16:03Z</time>
      </trkpt>
      <trkpt lat="48.75079" lon="-0.01621">
        <ele>108.63538396693</ele>
        <time>2019-10-08T12:16:24Z</time>
      </trkpt>
      <trkpt lat="48.75088" lon="-0.01581">
        <ele>112.3369830264</ele>
        <time>2019-10-08T12:16:45Z</time>
      </trkpt>
      <trkpt lat="48.751" lon="-0.01545">
        <ele>112.43843268373</ele>
        <time>2019-10-08T12:17:05Z</time>
      </trkpt>
      <trkpt lat="48.75108" lon="-0.01515">
        <ele>109.13966762196</ele>
        <time>2019-10-08T12:17:26Z</time>
      </trkpt>
      <trkpt lat="48.7512" lon="-0.01486">
        <ele>109.04085234289</ele>
        <time>2019-10-08T12:17:47Z</time>
      </trkpt>
      <trkpt lat="48.75134" lon="-0.01451">
        <ele>107.142291374</ele>
        <time>2019-10-08T12:18:08Z</time>
      </trkpt>
      <trkpt lat="48.75146" lon="-0.01419">
        <ele>101.54355746596</ele>
        <time>2019-10-08T12:18:28Z</time>
      </trkpt>
      <trkpt lat="48.75158" lon="-0.0138">
        <ele>110.54516248098</ele>
        <time>2019-10-08T12:18:48Z</time>
      </trkpt>
      <trkpt lat="48.75166" lon="-0.01346">
        <ele>108.14650317573</ele>
        <time>2019-10-08T12:19:09Z</time>
      </trkpt>
      <trkpt lat="48.7517" lon="-0.01315">
        <ele>107.74775838133</ele>
        <time>2019-10-08T12:19:30Z</time>
      </trkpt>
      <trkpt lat="48.75179" lon="-0.01273">
        <ele>106.24945850382</ele>
        <time>2019-10-08T12:19:51Z</time>
      </trkpt>
      <trkpt lat="48.75192" lon="-0.01244">
        <ele>105.45063472444</ele>
        <time>2019-10-08T12:20:12Z</time>
      </trkpt>
      <trkpt lat="48.7521" lon="-0.01226">
        <ele>106.15137789289</ele>
        <time>2019-10-08T12:20:33Z</time>
      </trkpt>
      <trkpt lat="48.7522" lon="-0.01193">
        <ele>107.152693328</ele>
        <time>2019-10-08T12:20:54Z</time>
      </trkpt>
      <trkpt lat="48.75218" lon="-0.01162">
        <ele>110.95391239849</ele>
        <time>2019-10-08T12:21:14Z</time>
      </trkpt>
      <trkpt lat="48.75214" lon="-0.01123">
        <ele>111.75545039733</ele>
        <time>2019-10-08T12:21:35Z</time>
      </trkpt>
      <trkpt lat="48.75219" lon="-0.01084">
        <ele>107.4570198336</ele>
        <time>2019-10-08T12:21:56Z</time>
      </trkpt>
      <trkpt lat="48.7523" lon="-0.0105">
        <ele>108.45837374951</ele>
        <time>2019-10-08T12:22:16Z</time>
      </trkpt>
      <trkpt lat="48.75243" lon="-0.01015">
        <ele>109.6598144376</ele>
        <time>2019-10-08T12:22:37Z</time>
      </trkpt>
      <trkpt lat="48.75255" lon="-0.00975">
        <ele>111.36139728</ele>
        <time>2019-10-08T12:22:58Z</time>
      </trkpt>
      <trkpt lat="48.7526" lon="-0.00941">
        <ele>108.96274460769</ele>
        <time>2019-10-08T12:23:18Z</time>
      </trkpt>
      <trkpt lat="48.75271" lon="-0.00911">
        <ele>108.2639550096</ele>
        <time>2019-10-08T12:23:39Z</time>
      </trkpt>
      <trkpt lat="48.75277" lon="-0.0088">
        <ele>106.7651768304</ele>
        <time>2019-10-08T12:24:00Z</time>
      </trkpt>
      <trkpt lat="48.75286" lon="-0.00847">
        <ele>104.8665273584</ele>
        <time>2019-10-08T12:24:21Z</time>
      </trkpt>
      <trkpt lat="48.75299" lon="-0.00813">
        <ele>102.36787509262</ele>
        <time>2019-10-08T12:24:42Z</time>
      </trkpt>
      <trkpt lat="48.75322" lon="-0.00781">
        <ele>106.9691755328</ele>
        <time>2019-10-08T12:25:03Z</time>
      </trkpt>
      <trkpt lat="48.75335" lon="-0.00751">
        <ele>109.07038246813</ele>
        <time>2019-10-08T12:25:24Z</time>
      </trkpt>
      <trkpt lat="48.7535" lon="-0.00722">
        <ele>110.77151736151</ele>
        <time>2019-10-08T12:25:45Z</time>
      </trkpt>
      <trkpt lat="48.75361" lon="-0.00693">
        <ele>110.27266695111</ele>
        <time>2019-10-08T12:26:06Z</time>
      </trkpt>
      <trkpt lat="48.75382" lon="-0.00702">
        <ele>114.27236838267</ele>
        <time>2019-10-08T12:26:27Z</time>
      </trkpt>
      <trkpt lat="48.75399" lon="-0.00715">
        <ele>117.9718493236</ele>
        <time>2019-10-08T12:26:48Z</time>
      </trkpt>
      <trkpt lat="48.75418" lon="-0.00727">
        <ele>119.371419328</ele>
        <time>2019-10-08T12:27:09Z</time>
      </trkpt>
      <trkpt lat="48.7544" lon="-0.00741">
        <ele>119.17088821333</ele>
        <time>2019-10-08T12:27:29Z</time>
      </trkpt>
      <trkpt lat="48.75463" lon="-0.00759">
        <ele>119.8702020648</ele>
        <time>2019-10-08T12:27:50Z</time>
      </trkpt>
      <trkpt lat="48.75536" lon="-0.00822">
        <ele>122.96784474185</ele>
        <time>2019-10-08T12:28:58Z</time>
      </trkpt>
      <trkpt lat="48.75581" lon="-0.00896">
        <ele>129.66497978457</ele>
        <time>2019-10-08T12:29:58Z</time>
      </trkpt>
      <trkpt lat="48.75625" lon="-0.00846">
        <ele>116.5669928998</ele>
        <time>2019-10-08T12:30:58Z</time>
      </trkpt>
      <trkpt lat="48.75668" lon="-0.00757">
        <ele>116.7705353003</ele>
        <time>2019-10-08T12:31:58Z</time>
      </trkpt>
      <trkpt lat="48.75701" lon="-0.00688">
        <ele>115.87325827013</ele>
        <time>2019-10-08T12:32:58Z</time>
      </trkpt>
      <trkpt lat="48.75746" lon="-0.00609">
        <ele>110.97635981798</ele>
        <time>2019-10-08T12:33:58Z</time>
      </trkpt>
      <trkpt lat="48.75793" lon="-0.00535">
        <ele>110.77928567469</ele>
        <time>2019-10-08T12:34:58Z</time>
      </trkpt>
      <trkpt lat="48.75845" lon="-0.0047">
        <ele>118.18184225823</ele>
        <time>2019-10-08T12:35:58Z</time>
      </trkpt>
      <trkpt lat="48.759" lon="-0.004">
        <ele>119.48456912466</ele>
        <time>2019-10-08T12:36:58Z</time>
      </trkpt>
      <trkpt lat="48.75949" lon="-0.0033">
        <ele>117.78730116176</ele>
        <time>2019-10-08T12:37:58Z</time>
      </trkpt>
      <trkpt lat="48.7601" lon="-0.00259">
        <ele>116.89006486222</ele>
        <time>2019-10-08T12:38:58Z</time>
      </trkpt>
      <trkpt lat="48.76066" lon="-0.00202">
        <ele>116.39225194908</ele>
        <time>2019-10-08T12:39:58Z</time>
      </trkpt>
      <trkpt lat="48.76133" lon="-0.00166">
        <ele>127.29365438778</ele>
        <time>2019-10-08T12:40:58Z</time>
      </trkpt>
      <trkpt lat="48.76182" lon="-0.00098">
        <ele>128.29626536426</ele>
        <time>2019-10-08T12:41:58Z</time>
      </trkpt>
      <trkpt lat="48.76242" lon="-0.00034">
        <ele>127.39872008209</ele>
        <time>2019-10-08T12:42:58Z</time>
      </trkpt>
      <trkpt lat="48.76292" lon="0.0003">
        <ele>131.3</ele>
        <time>2019-10-08T12:43:58Z</time>
      </trkpt>
      <trkpt lat="48.76342" lon="0.00097">
        <ele>131.7</ele>
        <time>2019-10-08T12:44:58Z</time>
      </trkpt>
      <trkpt lat="48.76385" lon="0.00155">
        <ele>122</ele>
        <time>2019-10-08T12:45:58Z</time>
      </trkpt>
      <trkpt lat="48.76436" lon="0.00249">
        <ele>123.2</ele>
        <time>2019-10-08T12:46:58Z</time>
      </trkpt>
      <trkpt lat="48.7648" lon="0.0033">
        <ele>126.9</ele>
        <time>2019-10-08T12:47:58Z</time>
      </trkpt>
      <trkpt lat="48.76529" lon="0.00397">
        <ele>125.4</ele>
        <time>2019-10-08T12:48:58Z</time>
      </trkpt>
      <trkpt lat="48.76583" lon="0.00463">
        <ele>125.3</ele>
        <time>2019-10-08T12:49:58Z</time>
      </trkpt>
      <trkpt lat="48.76645" lon="0.0051">
        <ele>122.9</ele>
        <time>2019-10-08T12:50:58Z</time>
      </trkpt>
      <trkpt lat="48.76713" lon="0.00543">
        <ele>124.4</ele>
        <time>2019-10-08T12:51:58Z</time>
      </trkpt>
      <trkpt lat="48.76767" lon="0.00586">
        <ele>120.4</ele>
        <time>2019-10-08T12:52:58Z</time>
      </trkpt>
      <trkpt lat="48.76843" lon="0.00603">
        <ele>114.7</ele>
        <time>2019-10-08T12:53:58Z</time>
      </trkpt>
      <trkpt lat="48.76914" lon="0.00617">
        <ele>109.9</ele>
        <time>2019-10-08T12:54:58Z</time>
      </trkpt>
      <trkpt lat="48.76984" lon="0.00637">
        <ele>118.8</ele>
        <time>2019-10-08T12:55:58Z</time>
      </trkpt>
      <trkpt lat="48.77054" lon="0.00643">
        <ele>123</ele>
        <time>2019-10-08T12:56:58Z</time>
      </trkpt>
      <trkpt lat="48.77111" lon="0.00619">
        <ele>131.6</ele>
        <time>2019-10-08T12:57:58Z</time>
      </trkpt>
      <trkpt lat="48.77179" lon="0.0062">
        <ele>129.4</ele>
        <time>2019-10-08T12:58:58Z</time>
      </trkpt>
      <trkpt lat="48.77236" lon="0.00609">
        <ele>134</ele>
        <time>2019-10-08T12:59:58Z</time>
      </trkpt>
      <trkpt lat="48.77303" lon="0.00603">
        <ele>140.7</ele>
        <time>2019-10-08T13:00:58Z</time>
      </trkpt>
      <trkpt lat="48.77378" lon="0.00611">
        <ele>140.9</ele>
        <time>2019-10-08T13:01:58Z</time>
      </trkpt>
      <trkpt lat="48.77448" lon="0.00603">
        <ele>147.6</ele>
        <time>2019-10-08T13:02:58Z</time>
      </trkpt>
      <trkpt lat="48.77508" lon="0.00601">
        <ele>148.1</ele>
        <time>2019-10-08T13:03:58Z</time>
      </trkpt>
      <trkpt lat="48.77578" lon="0.00612">
        <ele>152</ele>
        <time>2019-10-08T13:04:58Z</time>
      </trkpt>
      <trkpt lat="48.7764" lon="0.00623">
        <ele>157.7</ele>
        <time>2019-10-08T13:05:58Z</time>
      </trkpt>
      <trkpt lat="48.77708" lon="0.00638">
        <ele>154.6</ele>
        <time>2019-10-08T13:06:58Z</time>
      </trkpt>
      <trkpt lat="48.77783" lon="0.0065">
        <ele>156.8</ele>
        <time>2019-10-08T13:07:58Z</time>
      </trkpt>
      <trkpt lat="48.77861" lon="0.00662">
        <ele>161.9</ele>
        <time>2019-10-08T13:08:58Z</time>
      </trkpt>
      <trkpt lat="48.77927" lon="0.0068">
        <ele>151</ele>
        <time>2019-10-08T13:09:58Z</time>
      </trkpt>
      <trkpt lat="48.77987" lon="0.00691">
        <ele>154</ele>
        <time>2019-10-08T13:10:58Z</time>
      </trkpt>
      <trkpt lat="48.78045" lon="0.00698">
        <ele>158</ele>
        <time>2019-10-08T13:11:58Z</time>
      </trkpt>
      <trkpt lat="48.78105" lon="0.00722">
        <ele>160.9</ele>
        <time>2019-10-08T13:12:58Z</time>
      </trkpt>
      <trkpt lat="48.78162" lon="0.00731">
        <ele>165.4</ele>
        <time>2019-10-08T13:13:58Z</time>
      </trkpt>
      <trkpt lat="48.78231" lon="0.00757">
        <ele>174.4</ele>
        <time>2019-10-08T13:14:58Z</time>
      </trkpt>
      <trkpt lat="48.78305" lon="0.0078">
        <ele>185.3</ele>
        <time>2019-10-08T13:15:58Z</time>
      </trkpt>
      <trkpt lat="48.78358" lon="0.00743">
        <ele>183.7</ele>
        <time>2019-10-08T13:16:58Z</time>
      </trkpt>
      <trkpt lat="48.78392" lon="0.00652">
        <ele>178.1</ele>
        <time>2019-10-08T13:17:58Z</time>
      </trkpt>
      <trkpt lat="48.78426" lon="0.00559">
        <ele>177.7</ele>
        <time>2019-10-08T13:18:58Z</time>
      </trkpt>
      <trkpt lat="48.78456" lon="0.00461">
        <ele>180.6</ele>
        <time>2019-10-08T13:19:58Z</time>
      </trkpt>
      <trkpt lat="48.78487" lon="0.00373">
        <ele>176.1</ele>
        <time>2019-10-08T13:20:58Z</time>
      </trkpt>
      <trkpt lat="48.7852" lon="0.00282">
        <ele>174.2</ele>
        <time>2019-10-08T13:21:58Z</time>
      </trkpt>
      <trkpt lat="48.78553" lon="0.00192">
        <ele>168.9</ele>
        <time>2019-10-08T13:22:58Z</time>
      </trkpt>
      <trkpt lat="48.78586" lon="0.001">
        <ele>162.8</ele>
        <time>2019-10-08T13:23:58Z</time>
      </trkpt>
      <trkpt lat="48.78621" lon="0.00029">
        <ele>169.6</ele>
        <time>2019-10-08T13:24:58Z</time>
      </trkpt>
      <trkpt lat="48.78652" lon="-0.00086">
        <ele>160.89706832186</ele>
        <time>2019-10-08T13:25:58Z</time>
      </trkpt>
      <trkpt lat="48.78695" lon="-0.00166">
        <ele>164.89433568478</ele>
        <time>2019-10-08T13:26:58Z</time>
      </trkpt>
      <trkpt lat="48.78728" lon="-0.00266">
        <ele>161.39095242278</ele>
        <time>2019-10-08T13:27:58Z</time>
      </trkpt>
      <trkpt lat="48.78775" lon="-0.00365">
        <ele>159.38761047243</ele>
        <time>2019-10-08T13:28:58Z</time>
      </trkpt>
      <trkpt lat="48.78814" lon="-0.00461">
        <ele>157.78438439261</ele>
        <time>2019-10-08T13:29:58Z</time>
      </trkpt>
      <trkpt lat="48.78855" lon="-0.00548">
        <ele>160.88146035334</ele>
        <time>2019-10-08T13:30:58Z</time>
      </trkpt>
      <trkpt lat="48.78901" lon="-0.00642">
        <ele>161.1783271072</ele>
        <time>2019-10-08T13:31:58Z</time>
      </trkpt>
      <trkpt lat="48.78938" lon="-0.00719">
        <ele>149.37576474195</ele>
        <time>2019-10-08T13:32:58Z</time>
      </trkpt>
      <trkpt lat="48.78984" lon="-0.00822">
        <ele>151.9723759124</ele>
        <time>2019-10-08T13:33:58Z</time>
      </trkpt>
      <trkpt lat="48.79032" lon="-0.00905">
        <ele>149.26962751115</ele>
        <time>2019-10-08T13:34:58Z</time>
      </trkpt>
      <trkpt lat="48.79014" lon="-0.00985">
        <ele>161.56694312058</ele>
        <time>2019-10-08T13:35:58Z</time>
      </trkpt>
      <trkpt lat="48.78945" lon="-0.01017">
        <ele>167.46575561129</ele>
        <time>2019-10-08T13:36:58Z</time>
      </trkpt>
      <trkpt lat="48.78866" lon="-0.01045">
        <ele>173.56465224131</ele>
        <time>2019-10-08T13:37:58Z</time>
      </trkpt>
      <trkpt lat="48.78798" lon="-0.01101">
        <ele>172.262649676</ele>
        <time>2019-10-08T13:38:58Z</time>
      </trkpt>
      <trkpt lat="48.78723" lon="-0.01136">
        <ele>179.96133846796</ele>
        <time>2019-10-08T13:39:58Z</time>
      </trkpt>
      <trkpt lat="48.78677" lon="-0.01194">
        <ele>165.35925232679</ele>
        <time>2019-10-08T13:40:58Z</time>
      </trkpt>
      <trkpt lat="48.78629" lon="-0.01251">
        <ele>158.45721218215</ele>
        <time>2019-10-08T13:41:58Z</time>
      </trkpt>
      <trkpt lat="48.78586" lon="-0.01314">
        <ele>153.25497338179</ele>
        <time>2019-10-08T13:42:58Z</time>
      </trkpt>
      <trkpt lat="48.78542" lon="-0.01377">
        <ele>140.65273029794</ele>
        <time>2019-10-08T13:43:58Z</time>
      </trkpt>
      <trkpt lat="48.78504" lon="-0.01435">
        <ele>133.6506517885</ele>
        <time>2019-10-08T13:44:58Z</time>
      </trkpt>
      <trkpt lat="48.78439" lon="-0.01473">
        <ele>139.64919681997</ele>
        <time>2019-10-08T13:45:58Z</time>
      </trkpt>
      <trkpt lat="48.78378" lon="-0.01518">
        <ele>138.74747780362</ele>
        <time>2019-10-08T13:46:58Z</time>
      </trkpt>
      <trkpt lat="48.78321" lon="-0.01566">
        <ele>133.44569129158</ele>
        <time>2019-10-08T13:47:58Z</time>
      </trkpt>
      <trkpt lat="48.78263" lon="-0.01622">
        <ele>130.24360047098</ele>
        <time>2019-10-08T13:48:58Z</time>
      </trkpt>
      <trkpt lat="48.78197" lon="-0.01656">
        <ele>130.54223032077</ele>
        <time>2019-10-08T13:49:58Z</time>
      </trkpt>
      <trkpt lat="48.78131" lon="-0.0167">
        <ele>120.4415826457</ele>
        <time>2019-10-08T13:50:58Z</time>
      </trkpt>
      <trkpt lat="48.7805" lon="-0.01673">
        <ele>121.64123915303</ele>
        <time>2019-10-08T13:51:58Z</time>
      </trkpt>
      <trkpt lat="48.77979" lon="-0.01703">
        <ele>120.13999165275</ele>
        <time>2019-10-08T13:52:58Z</time>
      </trkpt>
      <trkpt lat="48.77955" lon="-0.01724">
        <ele>120.43920271176</ele>
        <time>2019-10-08T13:53:58Z</time>
      </trkpt>
      <trkpt lat="48.77888" lon="-0.01746">
        <ele>121.43824652802</ele>
        <time>2019-10-08T13:54:58Z</time>
      </trkpt>
      <trkpt lat="48.77845" lon="-0.01832">
        <ele>123.835076988</ele>
        <time>2019-10-08T13:55:58Z</time>
      </trkpt>
      <trkpt lat="48.77834" lon="-0.01934">
        <ele>126.43142070729</ele>
        <time>2019-10-08T13:56:58Z</time>
      </trkpt>
      <trkpt lat="48.77841" lon="-0.02038">
        <ele>121.22774285674</ele>
        <time>2019-10-08T13:57:58Z</time>
      </trkpt>
      <trkpt lat="48.7781" lon="-0.02116">
        <ele>118.124873536</ele>
        <time>2019-10-08T13:58:58Z</time>
      </trkpt>
      <trkpt lat="48.77776" lon="-0.02196">
        <ele>120.52192548787</ele>
        <time>2019-10-08T13:59:58Z</time>
      </trkpt>
      <trkpt lat="48.77749" lon="-0.02293">
        <ele>119.71836068972</ele>
        <time>2019-10-08T14:00:58Z</time>
      </trkpt>
      <trkpt lat="48.77733" lon="-0.02399">
        <ele>121.71452969467</ele>
        <time>2019-10-08T14:01:58Z</time>
      </trkpt>
      <trkpt lat="48.77734" lon="-0.02501">
        <ele>116.21088861795</ele>
        <time>2019-10-08T14:02:58Z</time>
      </trkpt>
      <trkpt lat="48.7774" lon="-0.02608">
        <ele>114.90709963206</ele>
        <time>2019-10-08T14:03:58Z</time>
      </trkpt>
      <trkpt lat="48.77736" lon="-0.02709">
        <ele>111.00349143215</ele>
        <time>2019-10-08T14:04:58Z</time>
      </trkpt>
      <trkpt lat="48.77753" lon="-0.0281">
        <ele>106.79997600432</ele>
        <time>2019-10-08T14:05:58Z</time>
      </trkpt>
      <trkpt lat="48.77768" lon="-0.02917">
        <ele>111.09624975476</ele>
        <time>2019-10-08T14:06:58Z</time>
      </trkpt>
      <trkpt lat="48.77722" lon="-0.02991">
        <ele>119.79337464042</ele>
        <time>2019-10-08T14:07:58Z</time>
      </trkpt>
      <trkpt lat="48.77686" lon="-0.03015">
        <ele>121.49235644392</ele>
        <time>2019-10-08T14:08:58Z</time>
      </trkpt>
      <trkpt lat="48.7762" lon="-0.03029">
        <ele>125.59155020844</ele>
        <time>2019-10-08T14:09:58Z</time>
      </trkpt>
      <trkpt lat="48.77559" lon="-0.0303">
        <ele>120.69119578317</ele>
        <time>2019-10-08T14:10:58Z</time>
      </trkpt>
      <trkpt lat="48.77488" lon="-0.03038">
        <ele>121.1905773634</ele>
        <time>2019-10-08T14:11:58Z</time>
      </trkpt>
      <trkpt lat="48.77424" lon="-0.03068">
        <ele>126.1891789312</ele>
        <time>2019-10-08T14:12:58Z</time>
      </trkpt>
      <trkpt lat="48.77371" lon="-0.03117">
        <ele>113.88714380338</ele>
        <time>2019-10-08T14:13:58Z</time>
      </trkpt>
      <trkpt lat="48.77311" lon="-0.03188">
        <ele>119.98426881594</ele>
        <time>2019-10-08T14:14:58Z</time>
      </trkpt>
      <trkpt lat="48.77286" lon="-0.03277">
        <ele>118.28089569264</ele>
        <time>2019-10-08T14:15:58Z</time>
      </trkpt>
      <trkpt lat="48.77256" lon="-0.03357">
        <ele>117.27783032768</ele>
        <time>2019-10-08T14:16:58Z</time>
      </trkpt>
      <trkpt lat="48.77214" lon="-0.03437">
        <ele>122.87468413275</ele>
        <time>2019-10-08T14:17:58Z</time>
      </trkpt>
      <trkpt lat="48.77177" lon="-0.03514">
        <ele>113.37167190146</ele>
        <time>2019-10-08T14:18:58Z</time>
      </trkpt>
      <trkpt lat="48.77134" lon="-0.03596">
        <ele>115.26844152529</ele>
        <time>2019-10-08T14:19:58Z</time>
      </trkpt>
      <trkpt lat="48.77092" lon="-0.03659">
        <ele>116.1659028044</ele>
        <time>2019-10-08T14:20:58Z</time>
      </trkpt>
      <trkpt lat="48.77058" lon="-0.03676">
        <ele>120.96506239187</ele>
        <time>2019-10-08T14:21:58Z</time>
      </trkpt>
      <trkpt lat="48.77058" lon="-0.03676">
        <ele>120.96506237227</ele>
        <time>2019-10-08T14:22:54Z</time>
      </trkpt>
      <trkpt lat="48.77021" lon="-0.03635">
        <ele>125.66633994169</ele>
        <time>2019-10-08T14:23:20Z</time>
      </trkpt>
      <trkpt lat="48.7702" lon="-0.03634">
        <ele>125.26640250307</ele>
        <time>2019-10-08T14:23:41Z</time>
      </trkpt>
      <trkpt lat="48.77006" lon="-0.0362">
        <ele>129.1668381124</ele>
        <time>2019-10-08T14:24:02Z</time>
      </trkpt>
      <trkpt lat="48.76992" lon="-0.03606">
        <ele>129.86726110178</ele>
        <time>2019-10-08T14:24:23Z</time>
      </trkpt>
      <trkpt lat="48.76928" lon="-0.03546">
        <ele>119.96910804628</ele>
        <time>2019-10-08T14:25:32Z</time>
      </trkpt>
      <trkpt lat="48.76862" lon="-0.03497">
        <ele>113.57055047926</ele>
        <time>2019-10-08T14:26:32Z</time>
      </trkpt>
      <trkpt lat="48.76801" lon="-0.03443">
        <ele>113.8721985944</ele>
        <time>2019-10-08T14:27:32Z</time>
      </trkpt>
      <trkpt lat="48.76741" lon="-0.03394">
        <ele>104.87368892317</ele>
        <time>2019-10-08T14:28:32Z</time>
      </trkpt>
      <trkpt lat="48.76677" lon="-0.03392">
        <ele>104.87343828209</ele>
        <time>2019-10-08T14:29:32Z</time>
      </trkpt>
      <trkpt lat="48.76622" lon="-0.03398">
        <ele>108.07289756534</ele>
        <time>2019-10-08T14:30:32Z</time>
      </trkpt>
      <trkpt lat="48.76545" lon="-0.03381">
        <ele>112.17310544776</ele>
        <time>2019-10-08T14:31:32Z</time>
      </trkpt>
      <trkpt lat="48.76471" lon="-0.03346">
        <ele>112.67404847893</ele>
        <time>2019-10-08T14:32:32Z</time>
      </trkpt>
      <trkpt lat="48.76413" lon="-0.03302">
        <ele>113.4753898339</ele>
        <time>2019-10-08T14:33:32Z</time>
      </trkpt>
      <trkpt lat="48.76356" lon="-0.03266">
        <ele>111.37645839763</ele>
        <time>2019-10-08T14:34:32Z</time>
      </trkpt>
      <trkpt lat="48.76305" lon="-0.03225">
        <ele>113.87775187894</ele>
        <time>2019-10-08T14:35:32Z</time>
      </trkpt>
      <trkpt lat="48.76248" lon="-0.03191">
        <ele>116.07874910582</ele>
        <time>2019-10-08T14:36:32Z</time>
      </trkpt>
      <trkpt lat="48.76184" lon="-0.03162">
        <ele>128.17950528447</ele>
        <time>2019-10-08T14:37:32Z</time>
      </trkpt>
      <trkpt lat="48.76125" lon="-0.03118">
        <ele>130.6808907537</ele>
        <time>2019-10-08T14:38:32Z</time>
      </trkpt>
      <trkpt lat="48.76064" lon="-0.03082">
        <ele>131.78198027322</ele>
        <time>2019-10-08T14:39:32Z</time>
      </trkpt>
      <trkpt lat="48.75995" lon="-0.03042">
        <ele>135.38316939336</ele>
        <time>2019-10-08T14:40:32Z</time>
      </trkpt>
      <trkpt lat="48.7593" lon="-0.02999">
        <ele>130.68449061886</ele>
        <time>2019-10-08T14:41:32Z</time>
      </trkpt>
      <trkpt lat="48.75866" lon="-0.02946">
        <ele>127.18624618538</ele>
        <time>2019-10-08T14:42:32Z</time>
      </trkpt>
      <trkpt lat="48.75805" lon="-0.02887">
        <ele>128.78822646639</ele>
        <time>2019-10-08T14:43:32Z</time>
      </trkpt>
      <trkpt lat="48.75741" lon="-0.02844">
        <ele>129.48961767133</ele>
        <time>2019-10-08T14:44:32Z</time>
      </trkpt>
      <trkpt lat="48.75679" lon="-0.02797">
        <ele>128.19117150229</ele>
        <time>2019-10-08T14:45:32Z</time>
      </trkpt>
      <trkpt lat="48.75618" lon="-0.02752">
        <ele>133.09263599884</ele>
        <time>2019-10-08T14:46:32Z</time>
      </trkpt>
      <trkpt lat="48.75563" lon="-0.02715">
        <ele>126.0938435</ele>
        <time>2019-10-08T14:47:32Z</time>
      </trkpt>
      <trkpt lat="48.75493" lon="-0.02699">
        <ele>127.9941623053</ele>
        <time>2019-10-08T14:48:32Z</time>
      </trkpt>
      <trkpt lat="48.75446" lon="-0.02672">
        <ele>126.69503341789</ele>
        <time>2019-10-08T14:49:32Z</time>
      </trkpt>
      <trkpt lat="48.75411" lon="-0.02628">
        <ele>123.79659938206</ele>
        <time>2019-10-08T14:50:32Z</time>
      </trkpt>
      <trkpt lat="48.75349" lon="-0.02573">
        <ele>126.29850238875</ele>
        <time>2019-10-08T14:51:32Z</time>
      </trkpt>
      <trkpt lat="48.75323" lon="-0.02513">
        <ele>123.30076999572</ele>
        <time>2019-10-08T14:52:32Z</time>
      </trkpt>
      <trkpt lat="48.7525" lon="-0.02487">
        <ele>126.80150304531</ele>
        <time>2019-10-08T14:53:32Z</time>
      </trkpt>
      <trkpt lat="48.75239" lon="-0.02411">
        <ele>118.80448935714</ele>
        <time>2019-10-08T14:54:32Z</time>
      </trkpt>
      <trkpt lat="48.75219" lon="-0.02316">
        <ele>113.3081696736</ele>
        <time>2019-10-08T14:55:32Z</time>
      </trkpt>
      <trkpt lat="48.75193" lon="-0.02231">
        <ele>115.31146320869</ele>
        <time>2019-10-08T14:56:32Z</time>
      </trkpt>
      <trkpt lat="48.75201" lon="-0.02141">
        <ele>117.21506896702</ele>
        <time>2019-10-08T14:57:32Z</time>
      </trkpt>
      <trkpt lat="48.75161" lon="-0.02095">
        <ele>121.81675168101</ele>
        <time>2019-10-08T14:58:32Z</time>
      </trkpt>
      <trkpt lat="48.75147" lon="-0.02104">
        <ele>122.51634909392</ele>
        <time>2019-10-08T14:59:32Z</time>
      </trkpt>
      <trkpt lat="48.75143" lon="-0.02115">
        <ele>123.0158707875</ele>
        <time>2019-10-08T15:01:32Z</time>
      </trkpt>
      <trkpt lat="48.75162" lon="-0.02097">
        <ele>114.81665510873</ele>
        <time>2019-10-08T15:02:32Z</time>
      </trkpt>
      <trkpt lat="48.7516" lon="-0.02115">
        <ele>110.6159596204</ele>
        <time>2019-10-08T15:03:32Z</time>
      </trkpt>
      <trkpt lat="48.75155" lon="-0.02102">
        <ele>108.01646174361</ele>
        <time>2019-10-08T15:04:32Z</time>
      </trkpt>
      <trkpt lat="48.75164" lon="-0.02125">
        <ele>111.31556493335</ele>
        <time>2019-10-08T15:05:32Z</time>
      </trkpt>
      <trkpt lat="48.75153" lon="-0.02117">
        <ele>112.81583881742</ele>
        <time>2019-10-08T15:06:32Z</time>
      </trkpt>
      <trkpt lat="48.75152" lon="-0.02123">
        <ele>113.9155946152</ele>
        <time>2019-10-08T15:08:32Z</time>
      </trkpt>
      <trkpt lat="48.75162" lon="-0.02119">
        <ele>110.61580066433</ele>
        <time>2019-10-08T15:09:32Z</time>
      </trkpt>
      <trkpt lat="48.75159" lon="-0.0211">
        <ele>111.41615777062</ele>
        <time>2019-10-08T15:10:32Z</time>
      </trkpt>
      <trkpt lat="48.75153" lon="-0.02118">
        <ele>111.01579115187</ele>
        <time>2019-10-08T15:13:32Z</time>
      </trkpt>
      <trkpt lat="48.75159" lon="-0.02126">
        <ele>111.11551284809</ele>
        <time>2019-10-08T15:14:32Z</time>
      </trkpt>
      <trkpt lat="48.75154" lon="-0.02111">
        <ele>107.31607227759</ele>
        <time>2019-10-08T15:15:32Z</time>
      </trkpt>
      <trkpt lat="48.75147" lon="-0.02126">
        <ele>114.3154799176</ele>
        <time>2019-10-08T15:16:32Z</time>
      </trkpt>
      <trkpt lat="48.75147" lon="-0.02123">
        <ele>112.81557256958</ele>
        <time>2019-10-08T15:17:32Z</time>
      </trkpt>
      <trkpt lat="48.75153" lon="-0.02115">
        <ele>118.81593144641</ele>
        <time>2019-10-08T15:18:32Z</time>
      </trkpt>
      <trkpt lat="48.75159" lon="-0.02114">
        <ele>112.71598513331</ele>
        <time>2019-10-08T15:19:32Z</time>
      </trkpt>
      <trkpt lat="48.75153" lon="-0.02132">
        <ele>118.11526066577</ele>
        <time>2019-10-08T15:20:32Z</time>
      </trkpt>
      <trkpt lat="48.75157" lon="-0.02131">
        <ele>109.91528912958</ele>
        <time>2019-10-08T15:22:32Z</time>
      </trkpt>
      <trkpt lat="48.75151" lon="-0.02106">
        <ele>113.31627556853</ele>
        <time>2019-10-08T15:23:32Z</time>
      </trkpt>
      <trkpt lat="48.75159" lon="-0.02118">
        <ele>124.6158188192</ele>
        <time>2019-10-08T15:24:32Z</time>
      </trkpt>
      <trkpt lat="48.75156" lon="-0.02119">
        <ele>112.81576214483</ele>
        <time>2019-10-08T15:27:32Z</time>
      </trkpt>
      <trkpt lat="48.7516" lon="-0.02097">
        <ele>108.81665007552</ele>
        <time>2019-10-08T15:28:32Z</time>
      </trkpt>
      <trkpt lat="48.75161" lon="-0.02092">
        <ele>118.61686675989</ele>
        <time>2019-10-08T15:31:32Z</time>
      </trkpt>
      <trkpt lat="48.75134" lon="-0.02027">
        <ele>115.01936028219</ele>
        <time>2019-10-08T15:32:32Z</time>
      </trkpt>
      <trkpt lat="48.75079" lon="-0.02066">
        <ele>102.21763998862</ele>
        <time>2019-10-08T15:33:32Z</time>
      </trkpt>
      <trkpt lat="48.75019" lon="-0.02137">
        <ele>97.21459928293</ele>
        <time>2019-10-08T15:34:32Z</time>
      </trkpt>
      <trkpt lat="48.74981" lon="-0.02141">
        <ele>112.71438</ele>
        <time>2019-10-08T15:35:32Z</time>
      </trkpt>
      <trkpt lat="48.74917" lon="-0.02109">
        <ele>118.9156332</ele>
        <time>2019-10-08T15:36:32Z</time>
      </trkpt>
      <trkpt lat="48.74853" lon="-0.02053">
        <ele>111.9178932</ele>
        <time>2019-10-08T15:37:32Z</time>
      </trkpt>
      <trkpt lat="48.748" lon="-0.02005">
        <ele>98.3198</ele>
        <time>2019-10-08T15:38:32Z</time>
      </trkpt>
      <trkpt lat="48.7473" lon="-0.01954">
        <ele>105.4218532</ele>
        <time>2019-10-08T15:39:32Z</time>
      </trkpt>
      <trkpt lat="48.74677" lon="-0.01981">
        <ele>105.6207468</ele>
        <time>2019-10-08T15:40:32Z</time>
      </trkpt>
      <trkpt lat="48.74666" lon="-0.01952">
        <ele>104.72194</ele>
        <time>2019-10-08T15:41:32Z</time>
      </trkpt>
      <trkpt lat="48.74658" lon="-0.02009">
        <ele>104.11964</ele>
        <time>2019-10-08T15:42:32Z</time>
      </trkpt>
      <trkpt lat="48.74613" lon="-0.0197">
        <ele>112.8212</ele>
        <time>2019-10-08T15:43:32Z</time>
      </trkpt>
      <trkpt lat="48.74542" lon="-0.01901">
        <ele>113.12396</ele>
        <time>2019-10-08T15:44:32Z</time>
      </trkpt>
      <trkpt lat="48.74514" lon="-0.0191">
        <ele>91.2235932</ele>
        <time>2019-10-08T15:45:32Z</time>
      </trkpt>
      <trkpt lat="48.74469" lon="-0.01986">
        <ele>72.6205468</ele>
        <time>2019-10-08T15:46:32Z</time>
      </trkpt>
      <trkpt lat="48.74469" lon="-0.01986">
        <ele>72.6205468</ele>
        <time>2019-10-08T15:47:03Z</time>
      </trkpt>
      <trkpt lat="48.74395" lon="-0.02235">
        <ele>83.11062</ele>
        <time>2019-10-08T16:00:46Z</time>
      </trkpt>
      <trkpt lat="48.74395" lon="-0.02235">
        <ele>83.11062</ele>
        <time>2019-10-08T16:01:17Z</time>
      </trkpt>
      <trkpt lat="48.74454" lon="-0.02255">
        <ele>97.2098</ele>
        <time>2019-10-08T16:02:18Z</time>
      </trkpt>
      <trkpt lat="48.74495" lon="-0.02257">
        <ele>92.60974</ele>
        <time>2019-10-08T16:03:19Z</time>
      </trkpt>
      <trkpt lat="48.74522" lon="-0.02274">
        <ele>90.7090532</ele>
        <time>2019-10-08T16:04:20Z</time>
      </trkpt>
      <trkpt lat="48.74491" lon="-0.02358">
        <ele>85.3056668</ele>
        <time>2019-10-08T16:05:21Z</time>
      </trkpt>
      <trkpt lat="48.74549" lon="-0.02394">
        <ele>84.6042468</ele>
        <time>2019-10-08T16:06:22Z</time>
      </trkpt>
      <trkpt lat="48.74589" lon="-0.02468">
        <ele>85.8012932</ele>
        <time>2019-10-08T16:07:23Z</time>
      </trkpt>
      <trkpt lat="48.74655" lon="-0.02514">
        <ele>90.8994532</ele>
        <time>2019-10-08T16:08:23Z</time>
      </trkpt>
      <trkpt lat="48.74655" lon="-0.02514">
        <ele>90.8994532</ele>
        <time>2019-10-08T16:09:22Z</time>
      </trkpt>
      <trkpt lat="48.74718" lon="-0.02477">
        <ele>98.5009268</ele>
        <time>2019-10-08T16:09:47Z</time>
      </trkpt>
      <trkpt lat="48.74718" lon="-0.02477">
        <ele>98.5009268</ele>
        <time>2019-10-08T16:09:47Z</time>
      </trkpt>
      <trkpt lat="48.7473" lon="-0.02462">
        <ele>113.40154</ele>
        <time>2019-10-08T16:12:13Z</time>
      </trkpt>
      <trkpt lat="48.74717" lon="-0.02462">
        <ele>157</ele>
        <time>2019-10-08T16:13:16Z</time>
      </trkpt>
      <trkpt lat="48.74718" lon="-0.02461">
        <ele>92.9015676</ele>
        <time>2019-10-08T16:14:38Z</time>
      </trkpt>
      <trkpt lat="48.74706" lon="-0.02464">
        <ele>99.50144</ele>
        <time>2019-10-08T16:15:15Z</time>
      </trkpt>
      <trkpt lat="48.74706" lon="-0.02464">
        <ele>99.50144</ele>
        <time>2019-10-08T16:16:14Z</time>
      </trkpt>
    </trkseg>
  </trk>
</gpx>